createdAt,value
2022-08-03T00:00:29.041Z,15.72
2022-08-03T00:05:48.368Z,15.97
2022-08-03T00:10:55.867Z,16.14
2022-08-03T00:16:03.412Z,16.12
2022-08-03T00:21:10.888Z,16.04
2022-08-03T00:26:18.459Z,15.98
2022-08-03T00:31:25.901Z,15.96
2022-08-03T00:36:32.218Z,16.0
2022-08-03T00:41:41.207Z,16.2
2022-08-03T00:46:48.320Z,16.11
2022-08-03T00:51:55.763Z,15.92
2022-08-03T00:57:02.371Z,15.62
2022-08-03T01:02:10.291Z,15.34
2022-08-03T01:07:17.364Z,15.2
2022-08-03T01:12:25.428Z,15.11
2022-08-03T01:17:32.447Z,15.13
2022-08-03T01:22:40.219Z,15.16
2022-08-03T01:27:47.983Z,15.08
2022-08-03T01:32:54.896Z,14.96
2022-08-03T01:38:02.461Z,15.0
2022-08-03T01:43:11.353Z,14.83
2022-08-03T01:48:19.660Z,14.94
2022-08-03T01:53:28.273Z,14.98
2022-08-03T01:58:35.135Z,14.86
2022-08-03T02:03:42.905Z,14.72
2022-08-03T02:08:50.134Z,14.66
2022-08-03T02:13:56.728Z,14.66
2022-08-03T02:19:04.531Z,14.7
2022-08-03T02:24:11.729Z,14.66
2022-08-03T02:29:19.594Z,14.62
2022-08-03T02:34:27.041Z,14.61
2022-08-03T02:39:34.822Z,14.53
2022-08-03T02:44:41.841Z,14.54
2022-08-03T02:49:48.355Z,14.51
2022-08-03T02:54:56.213Z,14.38
2022-08-03T03:00:04.052Z,14.4
2022-08-03T03:05:11.274Z,14.38
2022-08-03T03:10:18.403Z,14.24
2022-08-03T03:15:31.409Z,14.13
2022-08-03T03:20:38.359Z,14.22
2022-08-03T03:25:45.908Z,14.26
2022-08-03T03:30:53.711Z,14.3
2022-08-03T03:36:01.407Z,14.32
2022-08-03T03:41:08.061Z,14.22
2022-08-03T03:46:16.009Z,14.24
2022-08-03T03:51:23.941Z,14.26
2022-08-03T03:56:30.968Z,14.36
2022-08-03T04:01:38.800Z,14.5
2022-08-03T04:06:51.093Z,15.48
2022-08-03T04:11:59.191Z,17.06
2022-08-03T04:17:07.280Z,18.41
2022-08-03T04:22:15.210Z,19.75
2022-08-03T04:27:23.908Z,21.02
2022-08-03T04:32:31.924Z,21.74
2022-08-03T04:37:40.141Z,21.97
2022-08-03T04:42:47.250Z,21.62
2022-08-03T04:47:54.874Z,21.54
2022-08-03T04:53:01.646Z,22.06
2022-08-03T04:58:11.277Z,21.8
2022-08-03T05:03:18.605Z,22.04
2022-08-03T05:08:25.382Z,22.2
2022-08-03T05:13:33.013Z,22.54
2022-08-03T05:18:39.602Z,23.7
2022-08-03T05:23:46.772Z,24.08
2022-08-03T05:28:55.254Z,25.26
2022-08-03T05:35:34.281Z,26.16
2022-08-03T05:40:40.660Z,26.5
2022-08-03T05:45:49.085Z,27.17
2022-08-03T05:50:56.249Z,27.81
2022-08-03T05:56:03.460Z,28.23
2022-08-03T06:01:11.573Z,28.83
2022-08-03T06:06:19.096Z,28.7
2022-08-03T06:11:26.304Z,28.68
2022-08-03T06:16:34.139Z,28.92
2022-08-03T06:21:41.367Z,29.19
2022-08-03T06:26:49.646Z,29.5
2022-08-03T06:31:57.304Z,29.54
2022-08-03T06:37:05.336Z,29.29
2022-08-03T06:42:13.410Z,29.08
2022-08-03T06:47:21.730Z,28.72
2022-08-03T06:52:28.999Z,28.38
2022-08-03T06:57:36.793Z,28.02
2022-08-03T07:02:44.956Z,27.44
2022-08-03T07:07:52.733Z,27.08
2022-08-03T07:13:00.876Z,26.92
2022-08-03T07:18:08.848Z,26.76
2022-08-03T07:23:16.721Z,26.6
2022-08-03T07:28:25.688Z,26.64
2022-08-03T07:34:13.390Z,26.73
2022-08-03T07:39:19.915Z,26.54
2022-08-03T07:44:28.350Z,26.76
2022-08-03T07:49:35.586Z,26.9
2022-08-03T07:54:44.564Z,26.86
2022-08-03T07:59:54.253Z,27.04
2022-08-03T08:05:02.880Z,27.0
2022-08-03T08:10:11.281Z,27.02
2022-08-03T08:15:18.613Z,27.22
2022-08-03T08:20:25.873Z,27.34
2022-08-03T08:25:34.074Z,27.46
2022-08-03T08:30:41.956Z,27.54
2022-08-03T08:35:51.116Z,27.76
2022-08-03T08:40:58.437Z,28.08
2022-08-03T08:46:05.932Z,28.31
2022-08-03T08:51:13.848Z,28.5
2022-08-03T08:56:22.160Z,28.56
2022-08-03T09:01:29.837Z,28.64
2022-08-03T09:06:38.308Z,28.75
2022-08-03T09:11:45.706Z,28.9
2022-08-03T09:16:52.052Z,28.92
2022-08-03T09:21:59.429Z,29.14
2022-08-03T09:27:06.968Z,29.28
2022-08-03T09:32:23.126Z,29.32
2022-08-03T09:37:31.071Z,29.7
2022-08-03T09:42:37.732Z,30.02
2022-08-03T09:47:44.841Z,30.36
2022-08-03T09:52:56.335Z,30.4
2022-08-03T09:58:03.768Z,30.61
2022-08-03T10:03:11.609Z,30.78
2022-08-03T10:08:19.840Z,30.94
2022-08-03T10:13:27.504Z,31.25
2022-08-03T10:18:34.667Z,31.62
2022-08-03T10:23:43.053Z,31.96
2022-08-03T10:28:51.006Z,32.02
2022-08-03T10:33:58.620Z,31.89
2022-08-03T10:39:05.917Z,31.84
2022-08-03T10:44:13.018Z,31.9
2022-08-03T10:49:20.245Z,31.86
2022-08-03T10:54:28.012Z,31.88
2022-08-03T10:59:35.276Z,31.9
2022-08-03T11:04:43.611Z,32.17
2022-08-03T11:09:51.576Z,32.3
2022-08-03T11:14:58.971Z,32.46
2022-08-03T11:20:07.114Z,32.82
2022-08-03T11:25:13.819Z,32.8
2022-08-03T11:30:21.658Z,32.81
2022-08-03T11:35:28.865Z,32.95
2022-08-03T11:40:36.032Z,33.04
2022-08-03T11:45:42.614Z,33.07
2022-08-03T11:50:51.413Z,33.42
2022-08-03T11:55:59.104Z,33.93
2022-08-03T12:01:06.550Z,34.6
2022-08-03T12:06:13.924Z,35.38
2022-08-03T12:11:20.537Z,35.53
2022-08-03T12:16:27.961Z,35.53
2022-08-03T12:21:36.719Z,35.34
2022-08-03T12:27:34.676Z,35.74
2022-08-03T12:32:41.206Z,36.06
2022-08-03T12:37:49.657Z,35.63
2022-08-03T12:42:56.859Z,35.61
2022-08-03T12:48:05.048Z,35.67
2022-08-03T12:53:12.540Z,35.52
2022-08-03T12:58:21.057Z,35.54
2022-08-03T13:03:29.698Z,35.76
2022-08-03T13:08:38.143Z,36.12
2022-08-03T13:13:45.816Z,35.7
2022-08-03T13:18:54.498Z,35.85
2022-08-03T13:24:02.378Z,35.99
2022-08-03T13:29:08.690Z,35.72
2022-08-03T13:34:15.888Z,36.02
2022-08-03T13:39:24.334Z,36.48
2022-08-03T13:44:31.941Z,36.75
2022-08-03T13:49:39.448Z,36.52
2022-08-03T13:54:46.560Z,36.25
2022-08-03T13:59:53.855Z,36.48
2022-08-03T14:05:02.080Z,36.38
2022-08-03T14:10:10.343Z,36.02
2022-08-03T14:15:18.308Z,36.56
2022-08-03T14:20:26.962Z,37.58
2022-08-03T14:25:34.695Z,36.93
2022-08-03T14:30:41.495Z,36.81
2022-08-03T14:35:48.965Z,36.61
2022-08-03T14:40:56.962Z,37.16
2022-08-03T14:46:04.883Z,36.69
2022-08-03T14:51:13.091Z,36.57
2022-08-03T14:56:21.213Z,37.02
2022-08-03T15:01:44.420Z,36.69
2022-08-03T15:06:52.361Z,36.4
2022-08-03T15:12:00.207Z,35.97
2022-08-03T15:17:14.706Z,35.44
2022-08-03T15:22:23.448Z,35.52
2022-08-03T15:27:30.782Z,35.08
2022-08-03T15:32:37.415Z,34.77
2022-08-03T15:38:01.142Z,34.58
2022-08-03T15:43:08.847Z,34.35
2022-08-03T15:48:16.887Z,34.24
2022-08-03T15:53:24.380Z,34.03
2022-08-03T15:58:30.654Z,33.94
2022-08-03T16:03:38.007Z,33.67
2022-08-03T16:08:45.059Z,33.18
2022-08-03T16:13:53.212Z,32.9
2022-08-03T16:19:00.090Z,32.97
2022-08-03T16:24:08.179Z,33.11
2022-08-03T16:29:16.246Z,32.68
2022-08-03T16:34:22.932Z,32.48
2022-08-03T16:39:31.172Z,32.26
2022-08-03T16:44:39.855Z,32.11
2022-08-03T16:49:47.470Z,32.22
2022-08-03T16:54:53.661Z,32.46
2022-08-03T17:00:00.215Z,32.79
2022-08-03T17:05:07.414Z,31.34
2022-08-03T17:10:14.871Z,29.58
2022-08-03T17:15:23.434Z,28.82
2022-08-03T17:20:30.961Z,28.34
2022-08-03T17:25:37.496Z,27.89
2022-08-03T17:30:45.966Z,27.52
2022-08-03T17:35:53.823Z,27.22
2022-08-03T17:41:01.716Z,27.02
2022-08-03T17:46:09.088Z,26.66
2022-08-03T17:51:16.794Z,26.36
2022-08-03T17:56:23.896Z,25.93
2022-08-03T18:01:31.876Z,25.3
2022-08-03T18:06:39.447Z,24.56
2022-08-03T18:11:46.857Z,23.84
2022-08-03T18:16:54.219Z,23.31
2022-08-03T18:22:01.475Z,22.83
2022-08-03T18:27:10.043Z,22.3
2022-08-03T18:32:17.489Z,21.81
2022-08-03T18:37:24.125Z,21.52
2022-08-03T18:42:31.708Z,21.26
2022-08-03T18:47:37.828Z,20.88
2022-08-03T18:52:46.023Z,20.5
2022-08-03T18:57:53.535Z,20.21
2022-08-03T19:03:01.274Z,20.0
2022-08-03T19:08:07.934Z,19.76
2022-08-03T19:13:15.123Z,19.52
2022-08-03T19:18:22.996Z,19.31
2022-08-03T19:23:29.990Z,19.22
2022-08-03T19:28:37.689Z,18.99
2022-08-03T19:33:45.181Z,18.89
2022-08-03T19:38:52.321Z,18.92
2022-08-03T19:43:59.545Z,18.78
2022-08-03T19:49:06.778Z,18.48
2022-08-03T19:54:14.266Z,18.19
2022-08-03T19:59:22.970Z,18.03
2022-08-03T20:04:30.163Z,17.93
2022-08-03T20:09:37.511Z,17.86
2022-08-03T20:14:46.746Z,17.73
2022-08-03T20:19:54.980Z,17.61
2022-08-03T20:25:03.280Z,17.44
2022-08-03T20:30:11.858Z,17.42
2022-08-03T20:35:20.978Z,17.36
2022-08-03T20:40:29.017Z,17.25
2022-08-03T20:45:36.478Z,17.15
2022-08-03T20:50:44.483Z,17.02
2022-08-03T20:55:52.284Z,16.92
2022-08-03T21:01:00.082Z,16.84
2022-08-03T21:06:07.114Z,16.7
2022-08-03T21:11:15.676Z,16.52
2022-08-03T21:16:22.634Z,16.48
2022-08-03T21:21:30.042Z,16.44
2022-08-03T21:26:37.598Z,16.4
2022-08-03T21:31:44.647Z,16.22
2022-08-03T21:36:52.086Z,16.21
2022-08-03T21:42:00.410Z,16.07
2022-08-03T21:47:10.505Z,15.93
2022-08-03T21:52:18.731Z,15.8
2022-08-03T21:57:27.146Z,15.71
2022-08-03T22:02:35.463Z,15.71
2022-08-03T22:07:41.660Z,15.7
2022-08-03T22:12:49.462Z,15.7
2022-08-03T22:17:56.698Z,15.56
2022-08-03T22:23:04.413Z,15.49
2022-08-03T22:28:12.488Z,15.44
2022-08-03T22:33:20.425Z,15.28
2022-08-03T22:39:05.816Z,15.32
2022-08-03T22:44:13.492Z,15.3
2022-08-03T22:49:22.388Z,15.22
2022-08-03T22:54:31.283Z,15.22
2022-08-03T22:59:39.101Z,15.21
2022-08-03T23:04:46.434Z,15.18
2022-08-03T23:09:53.957Z,15.12
2022-08-03T23:15:00.977Z,15.15
2022-08-03T23:20:08.745Z,15.11
2022-08-03T23:25:15.101Z,15.03
2022-08-03T23:30:22.938Z,15.08
2022-08-03T23:35:31.842Z,15.06
2022-08-03T23:40:38.616Z,14.98
2022-08-03T23:45:46.259Z,14.98
2022-08-03T23:50:54.238Z,15.03
2022-08-03T23:56:02.007Z,15.05
